Time;durP1;ratioP1;P1;durP2;ratioP2;P2;SDS_P1;SDS_P2;PMS_P1;PMS_P2;Temp;Humidity;BMP_temperature;BMP_pressure;BME280_temperature;BME280_humidity;BME280_pressure;Samples;Min_cycle;Max_cycle;Signal;HPM_P1;HPM_P2
2023/10/17 00:01:13;;;;;;;21.60;10.93;;;;;;;;;;5072693;28;20025;-75
2023/10/17 00:03:39;;;;;;;22.63;11.57;;;;;;;;;;5055748;28;20476;-76
2023/10/17 00:06:06;;;;;;;23.23;11.27;;;;;;;;;;5056950;28;20063;-76
2023/10/17 00:16:44;;;;;;;22.20;12.20;;;;;;;;;;5076449;28;20127;-76
2023/10/17 00:19:10;;;;;;;26.80;12.43;;;;;;;;;;5076981;28;20445;-76
2023/10/17 00:21:39;;;;;;;29.20;12.20;;;;;;;;;;5075495;28;20126;-78
2023/10/17 00:24:08;;;;;;;23.73;11.70;;;;;;;;;;5051110;28;20086;-76
2023/10/17 00:26:39;;;;;;;22.93;12.77;;;;;;;;;;5057310;28;20029;-77
2023/10/17 00:29:05;;;;;;;22.90;12.00;;;;;;;;;;5056495;28;20017;-76
2023/10/17 00:31:33;;;;;;;24.97;12.00;;;;;;;;;;5055141;28;20438;-76
2023/10/17 00:34:00;;;;;;;18.43;11.37;;;;;;;;;;5038390;28;20112;-76
2023/10/17 00:36:27;;;;;;;24.63;12.13;;;;;;;;;;5057991;28;20024;-76
2023/10/17 00:39:08;;;;;;;22.60;12.40;;;;;;;;;;5071302;28;20121;-75
2023/10/17 00:42:09;;;;;;;19.90;11.43;;;;;;;;;;5053085;28;20020;-75
2023/10/17 00:44:39;;;;;;;22.67;11.70;;;;;;;;;;5053046;28;20029;-77
2023/10/17 00:47:08;;;;;;;23.60;11.97;;;;;;;;;;5052768;28;20035;-77
2023/10/17 00:49:42;;;;;;;24.30;12.37;;;;;;;;;;5069908;28;20017;-77
2023/10/17 00:52:32;;;;;;;22.80;12.40;;;;;;;;;;5069302;28;20074;-76
2023/10/17 00:54:59;;;;;;;27.77;12.27;;;;;;;;;;5070604;28;20024;-74
2023/10/17 00:57:28;;;;;;;25.67;12.43;;;;;;;;;;5069222;28;20020;-77
2023/10/17 00:59:55;;;;;;;24.90;10.90;;;;;;;;;;5068895;28;20055;-76
2023/10/17 01:02:23;;;;;;;21.73;10.70;;;;;;;;;;5070570;28;20074;-76
2023/10/17 01:04:50;;;;;;;21.90;11.77;;;;;;;;;;5070105;28;20520;-76
2023/10/17 01:07:34;;;;;;;22.70;10.70;;;;;;;;;;5070216;28;20082;-76
2023/10/17 01:10:10;;;;;;;24.33;12.37;;;;;;;;;;5070032;28;20043;-75
2023/10/17 01:12:41;;;;;;;23.50;13.33;;;;;;;;;;5070277;28;20108;-77
2023/10/17 01:15:07;;;;;;;22.70;11.37;;;;;;;;;;5062151;28;20024;-77
2023/10/17 01:17:35;;;;;;;25.33;11.60;;;;;;;;;;5068865;28;20102;-76
2023/10/17 01:20:08;;;;;;;23.10;10.87;;;;;;;;;;5069683;28;20643;-75
2023/10/17 01:22:41;;;;;;;25.03;11.47;;;;;;;;;;5070157;28;20081;-76
2023/10/17 01:25:19;;;;;;;21.97;11.37;;;;;;;;;;5044522;28;20028;-77
2023/10/17 01:27:44;;;;;;;27.97;11.87;;;;;;;;;;5070710;28;20029;-77
2023/10/17 01:30:11;;;;;;;24.00;12.37;;;;;;;;;;5069506;28;20025;-76
2023/10/17 01:32:36;;;;;;;21.07;11.43;;;;;;;;;;5052809;28;20024;-76
2023/10/17 01:35:02;;;;;;;22.23;11.57;;;;;;;;;;5052853;28;20089;-76
2023/10/17 01:37:28;;;;;;;18.87;11.03;;;;;;;;;;5052761;28;20031;-75
2023/10/17 01:39:53;;;;;;;23.53;10.87;;;;;;;;;;5053136;28;20028;-77
2023/10/17 01:42:20;;;;;;;24.73;12.07;;;;;;;;;;5053358;28;20039;-75
2023/10/17 01:44:45;;;;;;;23.37;11.63;;;;;;;;;;5063760;28;20025;-77
2023/10/17 01:47:11;;;;;;;29.13;12.87;;;;;;;;;;5071186;28;20059;-76
2023/10/17 01:49:36;;;;;;;23.43;11.67;;;;;;;;;;5070816;28;20028;-76
2023/10/17 01:52:03;;;;;;;24.07;11.87;;;;;;;;;;5070461;28;20071;-75
2023/10/17 01:54:29;;;;;;;24.50;11.50;;;;;;;;;;5068852;28;20078;-76
2023/10/17 01:57:05;;;;;;;26.60;11.83;;;;;;;;;;5068589;28;20020;-75
2023/10/17 01:59:34;;;;;;;23.30;12.27;;;;;;;;;;5052736;28;20519;-76
2023/10/17 02:02:03;;;;;;;24.63;11.33;;;;;;;;;;5069764;28;20097;-76
2023/10/17 02:04:29;;;;;;;21.43;11.17;;;;;;;;;;5053235;28;20039;-76
2023/10/17 02:06:55;;;;;;;24.10;11.10;;;;;;;;;;5052214;28;20029;-76
2023/10/17 02:11:54;;;;;;;23.30;10.30;;;;;;;;;;5069578;28;20028;-76
2023/10/17 02:14:21;;;;;;;19.53;11.13;;;;;;;;;;5051907;28;20020;-76
2023/10/17 02:16:47;;;;;;;23.20;10.77;;;;;;;;;;5071093;28;20052;-76
2023/10/17 02:19:12;;;;;;;23.87;11.80;;;;;;;;;;5072813;28;20086;-76
2023/10/17 02:21:43;;;;;;;23.13;11.00;;;;;;;;;;5055788;28;20028;-76
2023/10/17 02:24:09;;;;;;;20.33;11.23;;;;;;;;;;5072591;28;20029;-76
2023/10/17 02:29:23;;;;;;;24.23;11.20;;;;;;;;;;5073198;28;20483;-76
2023/10/17 02:31:52;;;;;;;22.03;10.77;;;;;;;;;;5054504;28;20027;-76
2023/10/17 02:34:23;;;;;;;20.20;10.53;;;;;;;;;;5072970;28;20048;-77
2023/10/17 02:36:50;;;;;;;16.90;10.77;;;;;;;;;;5055319;28;20119;-76
2023/10/17 02:39:16;;;;;;;21.70;10.67;;;;;;;;;;5072869;28;20029;-76
2023/10/17 02:41:55;;;;;;;20.93;11.00;;;;;;;;;;5055162;28;20070;-77
2023/10/17 02:44:21;;;;;;;23.30;11.00;;;;;;;;;;5070124;28;20082;-76
2023/10/17 02:46:46;;;;;;;21.17;11.30;;;;;;;;;;5068994;28;20028;-76
2023/10/17 02:49:16;;;;;;;21.77;10.27;;;;;;;;;;5072586;28;20027;-76
2023/10/17 02:51:45;;;;;;;19.73;10.60;;;;;;;;;;5073113;28;20021;-78
2023/10/17 02:54:15;;;;;;;25.50;11.70;;;;;;;;;;5071786;28;20475;-77
2023/10/17 02:56:46;;;;;;;17.37;10.20;;;;;;;;;;5057095;28;20036;-76
2023/10/17 02:59:13;;;;;;;22.13;11.43;;;;;;;;;;5076220;28;20036;-75
2023/10/17 03:01:52;;;;;;;22.17;11.23;;;;;;;;;;5076069;28;20257;-76
2023/10/17 03:04:23;;;;;;;20.33;11.03;;;;;;;;;;5058172;28;20096;-75
2023/10/17 03:06:56;;;;;;;21.10;10.93;;;;;;;;;;5075162;28;20025;-76
2023/10/17 03:14:39;;;;;;;18.63;10.67;;;;;;;;;;5073397;28;20035;-76
2023/10/17 03:17:06;;;;;;;19.53;10.87;;;;;;;;;;5063183;28;20044;-76
2023/10/17 03:19:33;;;;;;;18.47;10.63;;;;;;;;;;5054615;28;20025;-76
2023/10/17 03:22:16;;;;;;;21.13;11.23;;;;;;;;;;5054631;28;20029;-76
2023/10/17 03:24:45;;;;;;;33.87;12.90;;;;;;;;;;5067779;28;20027;-76
2023/10/17 03:27:12;;;;;;;28.83;12.07;;;;;;;;;;5071867;28;20381;-77
2023/10/17 03:29:42;;;;;;;28.23;12.37;;;;;;;;;;5069688;28;20017;-76
2023/10/17 03:32:11;;;;;;;20.97;10.37;;;;;;;;;;5070395;28;20053;-76
2023/10/17 03:34:37;;;;;;;22.97;12.27;;;;;;;;;;5070448;28;20035;-76
2023/10/17 03:40:28;;;;;;;20.33;10.97;;;;;;;;;;5071705;28;20116;-76
2023/10/17 03:42:53;;;;;;;23.27;10.23;;;;;;;;;;5071491;28;20041;-76
2023/10/17 03:47:59;;;;;;;17.53;10.20;;;;;;;;;;5070669;28;20157;-75
2023/10/17 03:53:15;;;;;;;22.37;11.23;;;;;;;;;;5070931;28;20488;-76
2023/10/17 03:55:43;;;;;;;22.90;11.37;;;;;;;;;;5069533;28;20033;-77
2023/10/17 03:58:49;;;;;;;21.40;9.93;;;;;;;;;;5071226;28;20031;-75
2023/10/17 04:01:00;;;;;;;20.10;11.43;;;;;;;;;;5056509;28;20059;-77
2023/10/17 04:08:37;;;;;;;24.10;11.40;;;;;;;;;;5070909;28;20108;-77
2023/10/17 04:13:37;;;;;;;21.87;11.00;;;;;;;;;;5070940;28;20362;-76
2023/10/17 04:16:10;;;;;;;20.70;12.13;;;;;;;;;;5052433;28;20121;-76
2023/10/17 04:18:39;;;;;;;22.40;11.37;;;;;;;;;;5069304;28;20116;-76
2023/10/17 04:23:50;;;;;;;20.33;10.37;;;;;;;;;;5071309;28;20027;-75
2023/10/17 04:26:19;;;;;;;18.40;10.87;;;;;;;;;;5070544;28;20028;-77
2023/10/17 04:28:50;;;;;;;20.57;11.33;;;;;;;;;;5050975;28;20025;-77
2023/10/17 04:31:25;;;;;;;28.17;12.25;;;;;;;;;;5050604;28;20060;-78
2023/10/17 04:33:56;;;;;;;21.17;11.80;;;;;;;;;;5033897;28;20071;-75
2023/10/17 04:36:35;;;;;;;23.38;10.07;;;;;;;;;;5042893;28;20043;-72
2023/10/17 04:39:25;;;;;;;25.20;12.00;;;;;;;;;;5060283;28;20129;-74
2023/10/17 04:44:20;;;;;;;20.80;11.20;;;;;;;;;;5065856;28;20024;-74
2023/10/17 04:46:51;;;;;;;19.27;9.90;;;;;;;;;;5068868;28;20032;-73
2023/10/17 04:49:18;;;;;;;24.20;10.50;;;;;;;;;;5050552;28;20112;-73
2023/10/17 04:51:45;;;;;;;21.90;9.73;;;;;;;;;;5068041;28;20035;-75
2023/10/17 04:54:29;;;;;;;20.97;10.07;;;;;;;;;;5065552;28;20040;-73
2023/10/17 04:56:59;;;;;;;19.00;11.27;;;;;;;;;;5033214;28;20090;-72
2023/10/17 05:00:24;;;;;;;19.13;11.43;;;;;;;;;;5044478;28;20033;-75
2023/10/17 06:19:21;;;;;;;22.17;11.67;;;;;;;;;;5057071;28;20170;-71
2023/10/17 06:35:32;;;;;;;23.60;12.20;;;;;;;;;;5063582;28;20039;-74
2023/10/17 06:38:01;;;;;;;21.10;11.07;;;;;;;;;;5050781;28;20028;-74
2023/10/17 06:40:37;;;;;;;31.27;13.17;;;;;;;;;;5056498;28;20033;-74
2023/10/17 06:43:13;;;;;;;31.63;12.10;;;;;;;;;;5059614;28;20073;-75
2023/10/17 06:45:52;;;;;;;27.57;11.03;;;;;;;;;;5052105;28;20038;-73
2023/10/17 06:48:18;;;;;;;21.83;12.10;;;;;;;;;;5045763;28;20036;-74
2023/10/17 06:53:34;;;;;;;27.37;13.03;;;;;;;;;;5063416;28;20039;-78
2023/10/17 06:56:09;;;;;;;25.33;12.73;;;;;;;;;;5064554;28;20117;-74
2023/10/17 06:58:36;;;;;;;20.97;12.03;;;;;;;;;;5039670;28;20029;-75
2023/10/17 07:01:05;;;;;;;26.20;12.60;;;;;;;;;;5041445;28;20040;-73
2023/10/17 07:03:35;;;;;;;21.27;12.17;;;;;;;;;;5050685;28;20037;-74
2023/10/17 07:06:16;;;;;;;30.07;13.43;;;;;;;;;;5060975;28;20044;-75
2023/10/17 07:08:46;;;;;;;58.77;21.20;;;;;;;;;;5062029;28;20352;-75
2023/10/17 07:24:34;;;;;;;30.33;14.63;;;;;;;;;;5051127;28;20111;-75
2023/10/17 07:27:03;;;;;;;35.23;15.33;;;;;;;;;;5044086;28;20835;-75
2023/10/17 07:29:36;;;;;;;24.40;12.90;;;;;;;;;;5058384;28;20036;-76
2023/10/17 07:32:17;;;;;;;21.93;13.27;;;;;;;;;;5048084;28;20487;-73
2023/10/17 07:35:10;;;;;;;25.53;12.57;;;;;;;;;;5045188;28;20101;-74
2023/10/17 07:37:54;;;;;;;35.73;14.23;;;;;;;;;;5053275;28;20063;-77
2023/10/17 07:40:31;;;;;;;29.53;13.63;;;;;;;;;;5040868;28;20511;-73
2023/10/17 07:43:21;;;;;;;20.53;12.60;;;;;;;;;;5057606;28;20045;-73
2023/10/17 07:46:15;;;;;;;35.10;15.60;;;;;;;;;;5057223;28;20033;-77
2023/10/17 07:49:04;;;;;;;26.27;13.13;;;;;;;;;;5062303;28;20439;-75
2023/10/17 07:51:58;;;;;;;28.53;13.73;;;;;;;;;;5041909;28;20124;-74
2023/10/17 07:54:30;;;;;;;27.57;14.83;;;;;;;;;;5032696;28;20062;-74
2023/10/17 07:57:17;;;;;;;28.17;13.48;;;;;;;;;;5031002;28;21259;-74
2023/10/17 08:00:01;;;;;;;24.83;13.07;;;;;;;;;;5060966;28;20048;-76
2023/10/17 08:02:30;;;;;;;31.60;14.85;;;;;;;;;;5058920;28;20040;-74
2023/10/17 08:05:00;;;;;;;40.77;20.77;;;;;;;;;;5045407;28;20039;-73
2023/10/17 08:07:33;;;;;;;29.63;14.30;;;;;;;;;;5065129;28;20499;-77
2023/10/17 08:10:11;;;;;;;28.13;14.50;;;;;;;;;;5064190;28;20036;-76
2023/10/17 08:12:42;;;;;;;33.60;15.77;;;;;;;;;;5094593;22;21635;-75
2023/10/17 08:15:19;;;;;;;39.37;15.13;;;;;;;;;;5043155;28;20102;-75
2023/10/17 08:17:59;;;;;;;78.50;32.87;;;;;;;;;;5012140;28;20033;-76
2023/10/17 08:21:07;;;;;;;37.90;15.67;;;;;;;;;;5034794;28;20095;-76
2023/10/17 08:23:57;;;;;;;25.15;13.10;;;;;;;;;;5033812;28;20049;-79
2023/10/17 08:26:28;;;;;;;30.57;14.00;;;;;;;;;;5043247;28;20036;-74
2023/10/17 08:29:08;;;;;;;28.83;14.43;;;;;;;;;;5040535;28;20025;-75
2023/10/17 08:31:52;;;;;;;;;;;;;;;;;;5046962;28;21171;-75
2023/10/17 08:34:24;;;;;;;24.60;12.80;;;;;;;;;;5014781;28;19932;-76
2023/10/17 08:36:53;;;;;;;;;;;;;;;;;;5035060;28;20056;-76
2023/10/17 08:40:29;;;;;;;20.75;11.38;;;;;;;;;;5044369;28;19963;-74
2023/10/17 08:42:13;;;;;;;30.88;13.68;;;;;;;;;;5043200;28;20871;-75
2023/10/17 08:44:49;;;;;;;23.30;14.07;;;;;;;;;;5046527;28;20025;-75
2023/10/17 08:47:18;;;;;;;26.38;12.57;;;;;;;;;;5032614;28;20028;-74
2023/10/17 08:49:49;;;;;;;23.20;13.55;;;;;;;;;;5026469;28;20025;-76
2023/10/17 08:52:35;;;;;;;22.33;12.80;;;;;;;;;;5042773;28;20033;-76
2023/10/17 08:55:15;;;;;;;21.73;11.63;;;;;;;;;;5045964;28;20064;-76
2023/10/17 08:57:43;;;;;;;23.95;12.05;;;;;;;;;;5051922;28;20488;-75
2023/10/17 09:03:11;;;;;;;26.50;11.55;;;;;;;;;;5025795;28;20037;-74
2023/10/17 09:20:02;;;;;;;;;;;;;;;;;;;;;
2023/10/17 09:22:51;;;;;;;;;;;;;;;;;;;;;
2023/10/17 09:25:22;;;;;;;11.07;6.88;;;;;;;;;;5067324;28;20032;-76
2023/10/17 09:28:04;;;;;;;12.45;8.38;;;;;;;;;;5071181;28;20099;-76
2023/10/17 09:30:57;;;;;;;10.88;7.72;;;;;;;;;;5063020;28;20027;-77
2023/10/17 09:33:43;;;;;;;10.88;7.28;;;;;;;;;;5060398;28;20040;-76
2023/10/17 09:36:10;;;;;;;17.08;7.38;;;;;;;;;;5046717;28;20124;-77
2023/10/17 09:38:43;;;;;;;13.07;6.65;;;;;;;;;;5059929;28;20038;-73
2023/10/17 09:41:20;;;;;;;11.32;6.82;;;;;;;;;;5056929;28;20035;-74
2023/10/17 09:43:52;;;;;;;14.23;7.63;;;;;;;;;;5041855;28;20032;-74
2023/10/17 09:46:46;;;;;;;10.52;4.43;;;;;;;;;;5060192;28;20449;-75
2023/10/17 09:49:23;;;;;;;12.55;5.55;;;;;;;;;;5054428;28;20132;-75
2023/10/17 09:51:52;;;;;;;9.50;5.65;;;;;;;;;;5044733;28;20090;-75
2023/10/17 09:54:22;;;;;;;8.60;4.47;;;;;;;;;;5057396;28;20028;-74
2023/10/17 09:56:54;;;;;;;12.32;5.47;;;;;;;;;;5072932;28;20392;-75
2023/10/17 09:59:34;;;;;;;8.23;4.55;;;;;;;;;;5038996;28;20186;-74
2023/10/17 10:02:02;;;;;;;9.57;4.47;;;;;;;;;;5063696;28;20044;-73
2023/10/17 10:04:29;;;;;;;11.50;7.93;;;;;;;;;;5047813;28;20063;-76
2023/10/17 10:07:23;;;;;;;12.20;7.30;;;;;;;;;;5062217;28;20036;-75
2023/10/17 10:10:01;;;;;;;13.15;6.80;;;;;;;;;;5052009;28;20040;-74
2023/10/17 10:13:06;;;;;;;25.00;9.95;;;;;;;;;;5059813;28;20133;-75
2023/10/17 10:16:01;;;;;;;15.38;7.53;;;;;;;;;;5039886;28;20182;-76
2023/10/17 10:18:40;;;;;;;14.67;6.27;;;;;;;;;;5058829;28;20495;-76
2023/10/17 10:21:13;;;;;;;14.20;7.25;;;;;;;;;;5062667;28;20036;-76
2023/10/17 10:23:46;;;;;;;10.88;7.25;;;;;;;;;;5060801;28;20060;-77
2023/10/17 10:26:19;;;;;;;12.48;7.40;;;;;;;;;;5048310;28;20059;-75
2023/10/17 10:28:52;;;;;;;14.38;7.00;;;;;;;;;;5025871;28;20491;-74
2023/10/17 10:31:45;;;;;;;12.80;6.72;;;;;;;;;;5050411;28;20025;-74
2023/10/17 10:34:12;;;;;;;10.02;6.82;;;;;;;;;;5058431;28;20021;-74
2023/10/17 10:36:50;;;;;;;8.30;5.38;;;;;;;;;;5064789;28;20671;-76
2023/10/17 10:39:20;;;;;;;8.57;5.57;;;;;;;;;;5044668;28;20039;-74
2023/10/17 10:42:07;;;;;;;9.65;6.15;;;;;;;;;;5035641;28;20037;-73
2023/10/17 10:44:42;;;;;;;7.40;5.20;;;;;;;;;;5064020;28;20035;-73
2023/10/17 10:47:35;;;;;;;8.30;4.78;;;;;;;;;;5065913;28;20031;-75
2023/10/17 10:50:11;;;;;;;9.38;5.35;;;;;;;;;;5038073;28;20032;-74
2023/10/17 10:52:49;;;;;;;8.55;4.55;;;;;;;;;;5075469;28;20522;-72
2023/10/17 10:55:17;;;;;;;10.57;4.68;;;;;;;;;;5072563;28;20373;-76
2023/10/17 10:58:00;;;;;;;22.23;5.57;;;;;;;;;;5064433;28;20036;-73
2023/10/17 11:00:46;;;;;;;7.68;5.18;;;;;;;;;;5067319;28;20048;-75
2023/10/17 11:03:13;;;;;;;13.75;6.00;;;;;;;;;;5051784;28;20020;-74
2023/10/17 11:06:27;;;;;;;6.57;4.80;;;;;;;;;;5066306;28;20119;-77
2023/10/17 11:08:56;;;;;;;6.82;4.55;;;;;;;;;;5002732;28;20369;-75
2023/10/17 11:11:26;;;;;;;7.60;4.43;;;;;;;;;;4985118;28;20064;-73
2023/10/17 11:13:58;;;;;;;8.48;4.72;;;;;;;;;;4992941;28;20498;-74
2023/10/17 11:16:32;;;;;;;9.45;5.03;;;;;;;;;;5012592;28;20100;-73
2023/10/17 11:18:59;;;;;;;11.82;4.80;;;;;;;;;;5011549;28;20056;-75
2023/10/17 11:21:31;;;;;;;7.75;4.47;;;;;;;;;;5051245;28;20124;-74
2023/10/17 11:24:08;;;;;;;8.68;4.43;;;;;;;;;;5052816;28;20044;-74
2023/10/17 11:26:41;;;;;;;6.20;4.00;;;;;;;;;;5071182;28;20033;-74
2023/10/17 11:29:17;;;;;;;7.32;4.22;;;;;;;;;;5048873;28;20036;-78
2023/10/17 11:31:45;;;;;;;6.18;3.80;;;;;;;;;;5063593;28;20028;-78
2023/10/17 11:34:19;;;;;;;12.18;4.85;;;;;;;;;;5053329;28;20139;-75
2023/10/17 11:36:55;;;;;;;6.75;4.28;;;;;;;;;;5068763;28;20063;-74
2023/10/17 11:40:26;;;;;;;9.38;5.20;;;;;;;;;;5061233;28;20756;-75
2023/10/17 11:42:53;;;;;;;7.95;3.58;;;;;;;;;;5059590;28;20158;-74
2023/10/17 11:45:48;;;;;;;7.78;3.65;;;;;;;;;;5041979;28;20129;-77
2023/10/17 11:48:36;;;;;;;5.65;3.42;;;;;;;;;;5032642;28;20031;-75
2023/10/17 11:51:18;;;;;;;4.45;3.42;;;;;;;;;;5044390;28;20036;-78
2023/10/17 11:54:09;;;;;;;7.07;3.72;;;;;;;;;;5060666;28;20092;-75
2023/10/17 11:56:40;;;;;;;10.63;3.60;;;;;;;;;;5061957;28;20031;-73
2023/10/17 11:59:18;;;;;;;10.57;6.45;;;;;;;;;;5046407;28;20066;-75
2023/10/17 12:01:53;;;;;;;6.35;2.92;;;;;;;;;;5070815;28;20514;-75
2023/10/17 12:04:20;;;;;;;6.53;2.80;;;;;;;;;;5054750;28;20032;-75
2023/10/17 12:06:49;;;;;;;4.57;2.88;;;;;;;;;;5060038;28;20066;-75
2023/10/17 12:09:18;;;;;;;5.60;3.45;;;;;;;;;;5056626;28;20021;-74
2023/10/17 12:11:49;;;;;;;8.38;3.45;;;;;;;;;;5061800;28;20028;-76
2023/10/17 12:14:23;;;;;;;7.63;3.50;;;;;;;;;;5061115;28;20136;-75
2023/10/17 12:17:23;;;;;;;6.65;3.55;;;;;;;;;;5048165;28;20044;-76
2023/10/17 12:20:09;;;;;;;6.30;3.42;;;;;;;;;;5063158;28;21134;-75
2023/10/17 12:22:46;;;;;;;4.95;3.40;;;;;;;;;;5063598;28;20036;-75
2023/10/17 12:25:16;;;;;;;5.55;3.47;;;;;;;;;;5039336;28;20025;-72
2023/10/17 12:27:49;;;;;;;9.20;3.45;;;;;;;;;;5059957;28;20890;-75
2023/10/17 12:30:28;;;;;;;9.23;4.30;;;;;;;;;;5050656;28;20125;-75
2023/10/17 12:32:59;;;;;;;5.55;3.45;;;;;;;;;;5023189;28;20166;-76
2023/10/17 12:36:24;;;;;;;7.68;3.63;;;;;;;;;;5021729;28;20033;-77
2023/10/17 12:38:57;;;;;;;4.70;3.13;;;;;;;;;;5021915;28;20067;-73
2023/10/17 12:41:49;;;;;;;6.22;3.30;;;;;;;;;;5007052;28;20157;-76
2023/10/17 12:44:17;;;;;;;5.38;3.40;;;;;;;;;;5018970;28;20469;-76
2023/10/17 12:46:50;;;;;;;8.88;3.58;;;;;;;;;;5024567;28;20120;-75
2023/10/17 12:49:22;;;;;;;10.00;3.65;;;;;;;;;;5007128;28;20036;-75
2023/10/17 12:51:52;;;;;;;7.65;3.53;;;;;;;;;;5024242;28;20040;-76
2023/10/17 12:54:26;;;;;;;5.63;3.42;;;;;;;;;;5024809;28;20104;-76
2023/10/17 12:56:53;;;;;;;5.28;2.75;;;;;;;;;;5029328;28;20030;-78
2023/10/17 12:59:22;;;;;;;4.68;3.22;;;;;;;;;;4993947;28;20041;-77
2023/10/17 13:01:51;;;;;;;3.70;2.92;;;;;;;;;;5022269;28;20080;-76
2023/10/17 13:04:26;;;;;;;10.15;3.38;;;;;;;;;;5031307;28;20489;-75
2023/10/17 13:07:25;;;;;;;3.05;2.40;;;;;;;;;;5064842;28;20041;-77
2023/10/17 13:09:54;;;;;;;5.47;2.97;;;;;;;;;;5063671;28;20519;-76
2023/10/17 13:12:39;;;;;;;6.75;3.38;;;;;;;;;;5036205;28;20290;-78
2023/10/17 13:15:18;;;;;;;5.93;3.65;;;;;;;;;;5062122;28;20067;-80
2023/10/17 13:18:12;;;;;;;7.40;3.05;;;;;;;;;;5073783;28;20157;-77
2023/10/17 13:21:01;;;;;;;6.20;2.50;;;;;;;;;;5072008;28;20047;-76
2023/10/17 13:23:31;;;;;;;5.55;3.28;;;;;;;;;;5063166;28;20100;-79
2023/10/17 13:26:14;;;;;;;6.97;4.03;;;;;;;;;;5062992;28;20020;-78
2023/10/17 13:28:53;;;;;;;6.25;3.45;;;;;;;;;;5069068;28;20036;-77
2023/10/17 13:31:20;;;;;;;45.47;6.22;;;;;;;;;;5066173;28;20087;-75
2023/10/17 13:34:22;;;;;;;7.53;2.80;;;;;;;;;;5063464;28;21178;-77
2023/10/17 13:36:48;;;;;;;4.93;3.00;;;;;;;;;;5059990;28;20020;-78
2023/10/17 13:39:16;;;;;;;6.68;2.35;;;;;;;;;;5069012;28;20528;-76
2023/10/17 13:42:03;;;;;;;9.68;3.47;;;;;;;;;;5068962;28;20024;-76
2023/10/17 13:44:30;;;;;;;9.43;3.75;;;;;;;;;;5070240;28;20023;-77
2023/10/17 13:47:02;;;;;;;7.57;3.28;;;;;;;;;;5075928;28;20012;-75
2023/10/17 13:49:38;;;;;;;6.25;3.55;;;;;;;;;;5098041;28;20028;-79
2023/10/17 13:52:17;;;;;;;5.95;3.20;;;;;;;;;;5049376;28;20102;-78
2023/10/17 13:54:44;;;;;;;4.97;2.38;;;;;;;;;;5068551;28;20028;-80
2023/10/17 13:57:16;;;;;;;4.90;3.15;;;;;;;;;;5080004;28;20031;-82
2023/10/17 13:59:53;;;;;;;4.88;2.72;;;;;;;;;;5104381;28;20028;-79
2023/10/17 14:02:19;;;;;;;8.65;2.55;;;;;;;;;;5072349;28;20043;-80
2023/10/17 14:04:45;;;;;;;6.45;2.67;;;;;;;;;;5098940;28;20017;-81
2023/10/17 14:07:12;;;;;;;5.15;3.17;;;;;;;;;;5098121;28;20039;-80
2023/10/17 14:09:43;;;;;;;5.88;2.72;;;;;;;;;;5068456;28;20034;-79
2023/10/17 14:12:15;;;;;;;5.47;2.58;;;;;;;;;;5087831;28;20024;-80
2023/10/17 14:14:42;;;;;;;7.18;2.78;;;;;;;;;;5100346;28;20045;-82
2023/10/17 14:17:20;;;;;;;5.75;3.17;;;;;;;;;;5095951;28;20028;-77
2023/10/17 14:19:46;;;;;;;3.42;2.63;;;;;;;;;;5078930;28;20044;-79
2023/10/17 14:27:36;;;;;;;5.40;2.95;;;;;;;;;;5091036;28;20028;-80
2023/10/17 14:30:05;;;;;;;5.10;3.67;;;;;;;;;;5070079;28;20028;-79
2023/10/17 14:32:43;;;;;;;7.05;3.65;;;;;;;;;;5090207;28;20450;-80
2023/10/17 14:35:17;;;;;;;5.05;3.30;;;;;;;;;;5071275;28;20578;-82
2023/10/17 14:37:43;;;;;;;5.45;3.47;;;;;;;;;;5084602;28;20024;-78
2023/10/17 14:40:11;;;;;;;6.18;3.35;;;;;;;;;;5069240;28;20042;-79
2023/10/17 14:42:39;;;;;;;18.25;8.30;;;;;;;;;;5070603;28;20078;-80
2023/10/17 14:45:17;;;;;;;4.95;2.90;;;;;;;;;;5048096;28;20397;-82
2023/10/17 14:47:43;;;;;;;4.80;2.88;;;;;;;;;;5080591;28;20025;-80
2023/10/17 14:50:19;;;;;;;6.57;2.78;;;;;;;;;;5078224;28;20097;-81
2023/10/17 14:52:47;;;;;;;8.98;3.03;;;;;;;;;;5087465;28;20039;-79
2023/10/17 14:55:23;;;;;;;4.50;2.20;;;;;;;;;;5077965;28;20357;-79
2023/10/17 14:57:49;;;;;;;4.47;2.50;;;;;;;;;;5071027;28;20028;-79
2023/10/17 15:00:16;;;;;;;5.50;2.33;;;;;;;;;;5069094;28;20033;-78
2023/10/17 15:02:47;;;;;;;4.88;2.40;;;;;;;;;;5070790;28;20114;-79
2023/10/17 15:05:27;;;;;;;5.53;2.70;;;;;;;;;;5088553;28;20088;-81
2023/10/17 15:07:54;;;;;;;5.25;2.63;;;;;;;;;;5086308;28;20028;-81
2023/10/17 15:10:26;;;;;;;8.27;4.00;;;;;;;;;;5088975;28;20024;-83
2023/10/17 15:12:58;;;;;;;7.15;3.60;;;;;;;;;;5086591;28;20082;-80
2023/10/17 15:15:27;;;;;;;4.43;3.08;;;;;;;;;;5055166;28;20032;-81
2023/10/17 15:17:54;;;;;;;5.97;3.20;;;;;;;;;;5034105;28;20029;-80
2023/10/17 15:20:31;;;;;;;8.07;3.20;;;;;;;;;;5068319;28;20044;-82
2023/10/17 15:23:06;;;;;;;8.73;3.35;;;;;;;;;;5049569;28;20436;-81
2023/10/17 15:25:37;;;;;;;8.45;2.95;;;;;;;;;;5034359;28;20029;-80
2023/10/17 15:28:05;;;;;;;7.93;4.00;;;;;;;;;;5067808;28;20606;-80
2023/10/17 15:30:32;;;;;;;5.22;3.30;;;;;;;;;;5070847;28;20035;-81
2023/10/17 15:33:02;;;;;;;5.50;2.53;;;;;;;;;;5073026;28;20033;-80
2023/10/17 15:35:33;;;;;;;2.60;2.28;;;;;;;;;;5056141;28;20043;-79
2023/10/17 15:38:02;;;;;;;2.92;1.98;;;;;;;;;;5054748;28;20055;-80
2023/10/17 15:40:31;;;;;;;5.50;2.03;;;;;;;;;;5067880;28;20548;-80
2023/10/17 15:43:01;;;;;;;3.03;2.20;;;;;;;;;;5073977;28;20048;-79
2023/10/17 15:45:40;;;;;;;6.95;2.78;;;;;;;;;;5077070;28;20070;-80
2023/10/17 15:48:17;;;;;;;5.75;2.72;;;;;;;;;;5074220;28;20036;-79
2023/10/17 15:50:44;;;;;;;6.22;2.70;;;;;;;;;;5067946;28;20024;-79
2023/10/17 15:53:12;;;;;;;7.63;2.38;;;;;;;;;;5067868;28;20033;-80
2023/10/17 15:55:41;;;;;;;5.72;2.92;;;;;;;;;;5048330;28;20028;-80
2023/10/17 15:58:11;;;;;;;6.53;4.28;;;;;;;;;;5039666;28;20028;-77
2023/10/17 16:00:43;;;;;;;6.32;2.90;;;;;;;;;;5066898;28;20044;-78
2023/10/17 16:03:10;;;;;;;;;;;;;;;;;;5052944;28;20052;-80
2023/10/17 16:05:46;;;;;;;4.63;2.72;;;;;;;;;;5070928;28;19909;-81
2023/10/17 16:08:14;;;;;;;8.85;3.00;;;;;;;;;;5071284;28;20062;-79
2023/10/17 16:10:43;;;;;;;20.50;4.65;;;;;;;;;;5070936;28;20231;-78
2023/10/17 16:13:14;;;;;;;16.20;4.93;;;;;;;;;;5073268;28;20049;-81
2023/10/17 16:15:41;;;;;;;12.35;4.55;;;;;;;;;;5086801;28;20036;-77
2023/10/17 16:18:10;;;;;;;4.20;2.80;;;;;;;;;;5071197;28;20044;-78
2023/10/17 16:20:41;;;;;;;4.38;3.30;;;;;;;;;;5094034;28;20182;-79
2023/10/17 16:23:09;;;;;;;6.25;3.88;;;;;;;;;;5094328;28;20028;-78
2023/10/17 16:25:39;;;;;;;8.35;3.15;;;;;;;;;;5068043;28;20028;-79
2023/10/17 16:28:05;;;;;;;9.40;3.47;;;;;;;;;;5080615;28;20485;-80
2023/10/17 16:30:35;;;;;;;7.22;3.78;;;;;;;;;;5063938;28;20066;-82
2023/10/17 16:33:01;;;;;;;10.10;4.47;;;;;;;;;;5063645;28;20032;-79
2023/10/17 16:35:31;;;;;;;10.70;5.53;;;;;;;;;;5081493;28;20114;-83
2023/10/17 16:38:05;;;;;;;7.90;4.60;;;;;;;;;;5083487;28;20016;-76
2023/10/17 16:40:31;;;;;;;8.90;5.30;;;;;;;;;;5100643;28;20040;-82
2023/10/17 16:42:57;;;;;;;9.43;4.07;;;;;;;;;;5082429;28;20088;-81
2023/10/17 16:45:26;;;;;;;8.30;3.97;;;;;;;;;;5082518;28;20032;-81
2023/10/17 16:47:52;;;;;;;8.45;4.03;;;;;;;;;;5084430;28;20464;-80
2023/10/17 16:50:18;;;;;;;8.07;4.40;;;;;;;;;;5082093;28;20442;-82
2023/10/17 16:52:45;;;;;;;11.73;4.32;;;;;;;;;;5082126;28;20107;-81
2023/10/17 16:55:16;;;;;;;8.45;4.57;;;;;;;;;;5082526;28;20040;-79
2023/10/17 16:57:43;;;;;;;10.00;4.93;;;;;;;;;;5085614;28;20040;-83
2023/10/17 17:00:13;;;;;;;13.10;4.80;;;;;;;;;;5085098;28;20372;-80
2023/10/17 17:02:46;;;;;;;8.45;5.18;;;;;;;;;;5083768;28;20629;-79
2023/10/17 17:05:16;;;;;;;18.05;7.95;;;;;;;;;;5066662;28;20032;-81
2023/10/17 17:07:44;;;;;;;9.05;5.38;;;;;;;;;;5065949;28;20703;-80
2023/10/17 17:10:15;;;;;;;18.80;5.55;;;;;;;;;;5081237;28;20077;-81
2023/10/17 17:12:42;;;;;;;10.18;5.07;;;;;;;;;;5079390;28;20034;-79
2023/10/17 17:15:11;;;;;;;11.15;5.03;;;;;;;;;;5069806;28;20045;-74
2023/10/17 17:17:41;;;;;;;14.45;5.13;;;;;;;;;;5067623;28;20037;-74
2023/10/17 17:20:13;;;;;;;15.40;6.03;;;;;;;;;;5044738;28;20036;-73
2023/10/17 17:22:52;;;;;;;9.00;5.70;;;;;;;;;;5054260;28;20131;-72
2023/10/17 17:25:20;;;;;;;8.48;4.43;;;;;;;;;;5038702;28;20120;-73
2023/10/17 17:27:56;;;;;;;9.10;5.60;;;;;;;;;;5073656;28;20024;-73
2023/10/17 17:30:22;;;;;;;10.65;5.88;;;;;;;;;;5061381;28;20024;-74
2023/10/17 17:32:49;;;;;;;48.38;21.77;;;;;;;;;;5079734;28;20031;-74
2023/10/17 17:35:15;;;;;;;9.32;5.60;;;;;;;;;;5077358;28;20025;-75
2023/10/17 17:37:42;;;;;;;10.07;5.35;;;;;;;;;;5076781;28;20500;-76
2023/10/17 17:40:08;;;;;;;15.48;5.75;;;;;;;;;;5073467;28;20036;-74
2023/10/17 17:42:35;;;;;;;14.38;5.65;;;;;;;;;;5054913;28;20024;-74
2023/10/17 17:45:04;;;;;;;8.55;5.10;;;;;;;;;;5057519;28;20109;-75
2023/10/17 17:47:30;;;;;;;11.63;5.55;;;;;;;;;;5092012;28;20039;-74
2023/10/17 17:49:57;;;;;;;11.60;6.10;;;;;;;;;;5081825;28;20024;-72
2023/10/17 17:52:22;;;;;;;9.93;5.35;;;;;;;;;;5061041;28;20032;-73
2023/10/17 17:54:49;;;;;;;9.68;5.53;;;;;;;;;;5077951;28;20028;-74
2023/10/17 17:57:15;;;;;;;14.55;10.23;;;;;;;;;;5079636;28;20596;-73
2023/10/17 17:59:41;;;;;;;14.40;5.82;;;;;;;;;;5077196;28;20465;-73